createdAt,value
2022-08-31T00:00:33.673Z,18.20
2022-08-31T00:03:19.083Z,18.20
2022-08-31T00:05:46.180Z,18.10
2022-08-31T00:08:13.291Z,18.20
2022-08-31T00:10:42.825Z,18.30
2022-08-31T00:13:12.787Z,18.30
2022-08-31T00:15:40.267Z,18.30
2022-08-31T00:18:07.504Z,18.30
2022-08-31T00:20:35.510Z,18.30
2022-08-31T00:23:10.728Z,18.30
2022-08-31T00:25:41.405Z,18.20
2022-08-31T00:28:10.176Z,18.30
2022-08-31T00:30:37.511Z,18.20
2022-08-31T00:33:05.597Z,18.10
2022-08-31T00:35:36.169Z,18.20
2022-08-31T00:38:06.409Z,18.10
2022-08-31T00:40:38.052Z,18.20
2022-08-31T00:43:33.072Z,18.20
2022-08-31T00:46:00.100Z,18.20
2022-08-31T00:48:27.211Z,18.20
2022-08-31T00:50:54.252Z,18.30
2022-08-31T00:53:21.186Z,18.30
2022-08-31T00:55:48.134Z,18.30
2022-08-31T00:58:15.165Z,18.30
2022-08-31T01:00:43.300Z,18.30
2022-08-31T01:03:10.826Z,18.30
2022-08-31T01:05:38.331Z,18.30
2022-08-31T01:08:06.623Z,18.30
2022-08-31T01:10:40.149Z,18.30
2022-08-31T01:13:09.116Z,18.30
2022-08-31T01:15:38.052Z,18.30
2022-08-31T01:18:06.909Z,18.30
2022-08-31T01:21:18.481Z,18.40
2022-08-31T01:23:46.457Z,18.30
2022-08-31T01:26:22.572Z,18.30
2022-08-31T01:28:51.229Z,18.30
2022-08-31T01:31:30.583Z,18.30
2022-08-31T01:33:57.959Z,18.30
2022-08-31T01:36:25.815Z,18.40
2022-08-31T01:38:53.236Z,18.40
2022-08-31T01:41:21.705Z,18.30
2022-08-31T01:43:48.675Z,18.30
2022-08-31T01:46:15.957Z,18.30
2022-08-31T01:48:45.038Z,18.30
2022-08-31T01:51:14.155Z,18.30
2022-08-31T01:53:45.208Z,18.20
2022-08-31T01:56:16.752Z,18.20
2022-08-31T01:58:45.222Z,18.20
2022-08-31T02:01:32.760Z,18.20
2022-08-31T02:03:59.879Z,18.10
2022-08-31T02:06:26.887Z,18.10
2022-08-31T02:08:53.732Z,18.10
2022-08-31T02:11:20.565Z,18.10
2022-08-31T02:13:47.719Z,18.10
2022-08-31T02:16:14.665Z,18.00
2022-08-31T02:18:41.592Z,18.00
2022-08-31T02:21:08.456Z,18.00
2022-08-31T02:23:35.335Z,18.00
2022-08-31T02:26:02.171Z,18.00
2022-08-31T02:28:29.052Z,18.00
2022-08-31T02:30:55.977Z,18.00
2022-08-31T02:33:24.927Z,17.90
2022-08-31T02:35:53.658Z,17.90
2022-08-31T02:38:22.927Z,17.90
2022-08-31T02:40:51.471Z,17.90
2022-08-31T02:43:24.933Z,17.80
2022-08-31T02:45:53.851Z,17.80
2022-08-31T02:48:21.457Z,17.90
2022-08-31T02:50:51.669Z,17.90
2022-08-31T02:53:22.943Z,17.80
2022-08-31T02:55:50.322Z,17.80
2022-08-31T02:58:21.944Z,17.80
2022-08-31T03:00:51.320Z,17.80
2022-08-31T03:03:19.523Z,17.80
2022-08-31T03:05:46.605Z,17.80
2022-08-31T03:08:13.837Z,17.80
2022-08-31T03:10:41.233Z,17.80
2022-08-31T03:13:08.065Z,17.80
2022-08-31T03:15:34.965Z,17.80
2022-08-31T03:18:01.893Z,17.70
2022-08-31T03:20:34.617Z,17.70
2022-08-31T03:23:03.041Z,17.70
2022-08-31T03:25:31.588Z,17.60
2022-08-31T03:27:58.565Z,17.70
2022-08-31T03:30:29.254Z,17.70
2022-08-31T03:33:02.361Z,17.70
2022-08-31T03:35:30.403Z,17.70
2022-08-31T03:37:57.832Z,17.70
2022-08-31T03:40:24.727Z,17.70
2022-08-31T03:42:51.678Z,17.60
2022-08-31T03:45:18.574Z,17.70
2022-08-31T03:47:45.781Z,17.70
2022-08-31T03:50:13.292Z,17.60
2022-08-31T03:52:40.116Z,17.60
2022-08-31T03:55:09.389Z,17.70
2022-08-31T03:57:36.965Z,17.60
2022-08-31T04:00:06.344Z,17.70
2022-08-31T04:02:37.495Z,17.70
2022-08-31T04:05:05.755Z,17.70
2022-08-31T04:07:42.145Z,17.60
2022-08-31T04:10:14.134Z,17.60
2022-08-31T04:12:41.471Z,17.60
2022-08-31T04:15:09.516Z,17.50
2022-08-31T04:17:37.122Z,17.60
2022-08-31T04:20:07.000Z,17.60
2022-08-31T04:22:34.044Z,17.60
2022-08-31T04:25:00.912Z,17.50
2022-08-31T04:27:27.804Z,17.50
2022-08-31T04:29:54.771Z,17.50
2022-08-31T04:32:21.593Z,17.50
2022-08-31T04:34:48.514Z,17.50
2022-08-31T04:37:23.594Z,17.50
2022-08-31T04:39:52.305Z,17.40
2022-08-31T04:42:19.609Z,17.40
2022-08-31T04:44:46.529Z,17.40
2022-08-31T04:47:13.371Z,17.50
2022-08-31T04:49:40.459Z,17.50
2022-08-31T04:52:08.228Z,17.50
2022-08-31T04:54:35.194Z,17.50
2022-08-31T04:57:02.102Z,17.50
2022-08-31T04:59:29.003Z,17.50
2022-08-31T05:01:56.040Z,17.50
2022-08-31T05:04:24.578Z,17.50
2022-08-31T05:06:51.516Z,17.60
2022-08-31T05:09:22.694Z,17.60
2022-08-31T05:11:52.512Z,17.60
2022-08-31T05:14:21.956Z,17.60
2022-08-31T05:16:50.024Z,17.60
2022-08-31T05:19:17.833Z,17.60
2022-08-31T05:21:45.145Z,17.60
2022-08-31T05:24:20.235Z,17.70
2022-08-31T05:26:50.716Z,17.70
2022-08-31T05:29:22.553Z,17.80
2022-08-31T05:31:52.481Z,17.80
2022-08-31T05:34:21.682Z,17.90
2022-08-31T05:36:53.922Z,17.90
2022-08-31T05:39:21.461Z,17.80
2022-08-31T05:41:49.540Z,17.90
2022-08-31T05:44:17.321Z,18.00
2022-08-31T05:46:52.184Z,18.10
2022-08-31T05:49:24.350Z,18.10
2022-08-31T05:51:56.422Z,18.10
2022-08-31T05:54:23.279Z,18.10
2022-08-31T05:56:50.116Z,18.20
2022-08-31T05:59:17.108Z,18.20
2022-08-31T06:01:44.451Z,18.20
2022-08-31T06:04:11.986Z,18.20
2022-08-31T06:06:39.086Z,18.30
2022-08-31T06:09:08.513Z,18.40
2022-08-31T06:11:40.446Z,18.40
2022-08-31T06:14:07.658Z,18.40
2022-08-31T06:16:36.022Z,18.40
2022-08-31T06:19:07.127Z,18.40
2022-08-31T06:21:50.099Z,18.40
2022-08-31T06:24:19.391Z,18.60
2022-08-31T06:26:56.693Z,18.60
2022-08-31T06:29:25.222Z,18.70
2022-08-31T06:31:52.170Z,18.70
2022-08-31T06:34:20.971Z,18.70
2022-08-31T06:36:48.874Z,18.90
2022-08-31T06:39:16.874Z,18.90
2022-08-31T06:41:43.998Z,18.90
2022-08-31T06:44:13.894Z,18.90
2022-08-31T06:46:42.173Z,18.90
2022-08-31T06:49:14.867Z,18.80
2022-08-31T06:51:41.852Z,18.80
2022-08-31T06:54:28.664Z,18.80
2022-08-31T06:57:00.170Z,18.80
2022-08-31T06:59:29.620Z,18.70
2022-08-31T07:01:59.013Z,18.80
2022-08-31T07:04:26.673Z,18.80
2022-08-31T07:06:54.328Z,18.80
2022-08-31T07:09:21.248Z,18.80
2022-08-31T07:11:52.609Z,18.80
2022-08-31T07:14:23.628Z,18.80
2022-08-31T07:16:55.404Z,18.80
2022-08-31T07:19:22.753Z,18.80
2022-08-31T07:21:53.571Z,18.80
2022-08-31T07:24:24.513Z,18.90
2022-08-31T07:27:02.248Z,19.00
2022-08-31T07:29:37.588Z,19.00
2022-08-31T07:32:04.531Z,19.00
2022-08-31T07:34:33.501Z,19.00
2022-08-31T07:37:19.716Z,19.00
2022-08-31T07:40:07.962Z,19.00
2022-08-31T07:42:43.683Z,19.00
2022-08-31T07:45:22.673Z,19.00
2022-08-31T07:47:52.599Z,19.10
2022-08-31T07:50:21.430Z,19.10
2022-08-31T07:52:54.759Z,19.10
2022-08-31T07:55:25.577Z,19.10
2022-08-31T07:57:55.041Z,19.10
2022-08-31T08:00:26.491Z,19.00
2022-08-31T08:02:54.602Z,19.00
2022-08-31T08:05:27.396Z,19.20
2022-08-31T08:08:06.024Z,19.30
2022-08-31T08:10:39.945Z,19.40
2022-08-31T08:13:07.802Z,19.50
2022-08-31T08:15:36.071Z,19.60
2022-08-31T08:18:04.940Z,19.70
2022-08-31T08:20:37.788Z,19.90
2022-08-31T08:23:18.347Z,20.00
2022-08-31T08:25:47.291Z,20.00
2022-08-31T08:31:06.217Z,20.10
2022-08-31T08:33:35.143Z,20.30
2022-08-31T08:36:07.605Z,20.30
2022-08-31T08:38:38.891Z,20.50
2022-08-31T08:41:12.768Z,20.80
2022-08-31T08:43:44.312Z,21.10
2022-08-31T08:46:35.514Z,21.50
2022-08-31T08:49:24.786Z,21.60
2022-08-31T08:52:29.058Z,21.90
2022-08-31T08:55:01.090Z,22.30
2022-08-31T08:57:33.954Z,22.70
2022-08-31T09:00:11.046Z,22.80
2022-08-31T09:03:04.661Z,23.00
2022-08-31T09:06:13.920Z,22.80
2022-08-31T09:09:24.894Z,22.80
2022-08-31T09:12:14.538Z,22.70
2022-08-31T09:15:27.754Z,22.70
2022-08-31T09:18:41.293Z,22.70
2022-08-31T09:21:31.130Z,22.90
2022-08-31T09:24:20.752Z,22.80
2022-08-31T09:27:00.171Z,22.80
2022-08-31T09:29:31.518Z,22.60
2022-08-31T09:32:09.785Z,22.60
2022-08-31T09:34:41.116Z,22.80
2022-08-31T09:37:24.733Z,23.00
2022-08-31T09:39:53.934Z,22.90
2022-08-31T09:42:32.103Z,23.10
2022-08-31T09:45:06.147Z,23.20
2022-08-31T09:47:48.814Z,23.10
2022-08-31T09:50:46.851Z,23.30
2022-08-31T09:53:46.461Z,23.40
2022-08-31T09:56:21.919Z,23.80
2022-08-31T09:58:53.423Z,24.20
2022-08-31T10:01:45.412Z,23.60
2022-08-31T10:04:27.068Z,24.10
2022-08-31T10:07:31.242Z,24.20
2022-08-31T10:10:30.559Z,24.30
2022-08-31T10:13:13.272Z,23.70
2022-08-31T10:15:58.246Z,23.10
2022-08-31T10:18:58.841Z,23.20
2022-08-31T10:21:54.468Z,23.00
2022-08-31T10:24:43.010Z,23.00
2022-08-31T10:27:32.191Z,23.10
2022-08-31T10:30:35.005Z,23.40
2022-08-31T10:33:17.813Z,23.80
2022-08-31T10:36:00.250Z,23.90
2022-08-31T10:38:40.935Z,24.10
2022-08-31T10:41:16.581Z,23.90
2022-08-31T10:44:17.736Z,23.60
2022-08-31T10:46:45.538Z,23.30
2022-08-31T10:49:12.460Z,23.20
2022-08-31T10:52:29.274Z,23.20
2022-08-31T10:55:28.914Z,23.20
2022-08-31T10:58:31.200Z,22.80
2022-08-31T11:01:20.347Z,22.50
2022-08-31T11:03:55.874Z,22.50
2022-08-31T11:06:46.115Z,22.50
2022-08-31T11:09:23.435Z,22.40
2022-08-31T11:12:06.993Z,22.30
2022-08-31T11:14:58.425Z,22.40
2022-08-31T11:17:47.329Z,22.40
2022-08-31T11:20:56.907Z,22.30
2022-08-31T11:24:09.488Z,21.90
2022-08-31T11:26:45.942Z,21.30
2022-08-31T11:29:34.383Z,20.90
2022-08-31T11:32:11.948Z,20.50
2022-08-31T11:34:49.458Z,19.90
2022-08-31T11:37:54.475Z,19.30
2022-08-31T11:40:41.474Z,19.00
2022-08-31T11:43:15.263Z,18.60
2022-08-31T11:45:43.229Z,18.50
2022-08-31T11:48:51.806Z,18.30
2022-08-31T11:51:42.931Z,18.30
2022-08-31T11:54:38.049Z,18.00
2022-08-31T11:57:06.466Z,17.90
2022-08-31T11:59:38.877Z,17.80
2022-08-31T12:02:21.474Z,17.80
2022-08-31T12:05:00.310Z,17.80
2022-08-31T12:07:39.001Z,17.70
2022-08-31T12:10:15.024Z,17.70
2022-08-31T12:13:09.681Z,17.70
2022-08-31T12:16:00.670Z,17.70
2022-08-31T12:18:42.547Z,17.80
2022-08-31T12:21:54.171Z,17.90
2022-08-31T12:25:12.589Z,18.00
2022-08-31T12:27:55.965Z,18.00
2022-08-31T12:30:27.459Z,18.00
2022-08-31T12:33:18.308Z,18.10
2022-08-31T12:35:49.334Z,18.00
2022-08-31T12:38:26.438Z,17.90
2022-08-31T12:40:55.729Z,17.90
2022-08-31T12:43:28.808Z,17.90
2022-08-31T12:46:35.784Z,17.70
2022-08-31T12:49:28.273Z,17.80
2022-08-31T12:52:40.517Z,17.90
2022-08-31T12:55:24.842Z,17.80
2022-08-31T12:58:51.810Z,17.90
2022-08-31T13:01:24.037Z,18.00
2022-08-31T13:03:56.070Z,18.00
2022-08-31T13:06:37.302Z,18.00
2022-08-31T13:09:05.968Z,18.10
2022-08-31T13:11:45.241Z,18.00
2022-08-31T13:14:20.861Z,18.00
2022-08-31T13:17:37.534Z,18.10
2022-08-31T13:20:07.845Z,18.00
2022-08-31T13:22:42.750Z,18.10
2022-08-31T13:25:16.957Z,18.40
2022-08-31T13:27:50.965Z,18.60
2022-08-31T13:30:22.353Z,18.60
2022-08-31T13:32:54.663Z,18.50
2022-08-31T13:35:35.606Z,18.50
2022-08-31T13:38:05.358Z,18.60
2022-08-31T13:40:39.329Z,18.70
2022-08-31T13:43:09.627Z,18.60
2022-08-31T13:45:58.535Z,18.50
2022-08-31T13:48:37.960Z,18.40
2022-08-31T13:51:13.516Z,18.60
2022-08-31T13:53:48.125Z,18.70
2022-08-31T13:56:48.815Z,18.80
2022-08-31T13:59:24.290Z,19.00
2022-08-31T14:02:07.717Z,19.10
2022-08-31T14:04:46.385Z,19.20
2022-08-31T14:07:23.498Z,19.30
2022-08-31T14:10:20.204Z,19.20
2022-08-31T14:12:57.159Z,19.20
2022-08-31T14:15:38.825Z,18.90
2022-08-31T14:18:28.376Z,18.70
2022-08-31T14:21:20.636Z,18.80
2022-08-31T14:24:02.457Z,18.90
2022-08-31T14:26:37.530Z,19.00
2022-08-31T14:29:10.186Z,19.00
2022-08-31T14:31:45.587Z,19.10
2022-08-31T14:34:32.113Z,19.20
2022-08-31T14:37:19.575Z,19.20
2022-08-31T14:39:57.695Z,19.30
2022-08-31T14:42:29.891Z,19.20
2022-08-31T14:45:09.914Z,19.30
2022-08-31T14:47:43.873Z,19.20
2022-08-31T14:50:16.255Z,19.20
2022-08-31T14:52:49.463Z,19.00
2022-08-31T14:55:16.473Z,18.90
2022-08-31T14:57:47.452Z,19.00
2022-08-31T15:00:21.874Z,19.10
2022-08-31T15:02:53.207Z,19.20
2022-08-31T15:05:23.904Z,19.20
2022-08-31T15:07:53.814Z,19.10
2022-08-31T15:10:25.514Z,19.00
2022-08-31T15:12:53.616Z,19.10
2022-08-31T15:15:21.219Z,19.10
2022-08-31T15:17:51.143Z,19.20
2022-08-31T15:20:20.027Z,19.00
2022-08-31T15:22:48.203Z,19.00
2022-08-31T15:25:16.129Z,18.80
2022-08-31T15:27:46.553Z,18.70
2022-08-31T15:30:15.977Z,18.70
2022-08-31T15:32:45.048Z,18.70
2022-08-31T15:35:17.884Z,18.70
2022-08-31T15:37:58.717Z,18.60
2022-08-31T15:40:29.342Z,18.50
2022-08-31T15:42:56.386Z,18.50
2022-08-31T15:45:25.231Z,18.50
2022-08-31T15:48:17.349Z,18.50
2022-08-31T15:51:00.500Z,18.50
2022-08-31T15:53:30.325Z,18.30
2022-08-31T15:56:06.481Z,18.20
2022-08-31T15:58:35.605Z,18.20
2022-08-31T16:01:05.335Z,18.20
2022-08-31T16:03:35.231Z,18.10
2022-08-31T16:06:04.043Z,18.10
2022-08-31T16:08:30.971Z,18.10
2022-08-31T16:10:57.859Z,18.00
2022-08-31T16:13:24.694Z,18.00
2022-08-31T16:15:53.015Z,18.00
2022-08-31T16:18:22.022Z,18.00
2022-08-31T16:20:50.439Z,18.00
2022-08-31T16:23:17.867Z,18.00
2022-08-31T16:25:48.456Z,17.90
2022-08-31T16:28:19.143Z,17.90
2022-08-31T16:30:46.213Z,17.90
2022-08-31T16:33:13.014Z,17.80
2022-08-31T16:35:40.072Z,17.70
2022-08-31T16:38:07.284Z,17.80
2022-08-31T16:40:35.276Z,17.80
2022-08-31T16:43:02.486Z,17.80
2022-08-31T16:45:29.347Z,17.80
2022-08-31T16:48:16.268Z,17.80
2022-08-31T16:50:48.808Z,17.80
2022-08-31T16:53:17.902Z,17.80
2022-08-31T16:55:47.767Z,17.80
2022-08-31T16:58:25.083Z,17.80
2022-08-31T17:01:13.128Z,17.80
2022-08-31T17:03:46.143Z,17.60
2022-08-31T17:06:13.086Z,17.50
2022-08-31T17:08:45.515Z,17.50
2022-08-31T17:11:23.506Z,17.40
2022-08-31T17:13:58.874Z,17.40
2022-08-31T17:16:38.210Z,17.30
2022-08-31T17:19:12.735Z,17.30
2022-08-31T17:21:50.766Z,17.30
2022-08-31T17:24:24.179Z,17.30
2022-08-31T17:26:53.992Z,17.10
2022-08-31T17:29:22.487Z,17.10
2022-08-31T17:31:50.388Z,17.10
2022-08-31T17:34:27.986Z,17.00
2022-08-31T17:36:59.163Z,17.00
2022-08-31T17:39:26.863Z,17.10
2022-08-31T17:41:54.679Z,17.10
2022-08-31T17:44:26.316Z,17.10
2022-08-31T17:46:53.770Z,17.10
2022-08-31T17:49:23.679Z,17.00
2022-08-31T17:51:52.626Z,17.00
2022-08-31T17:54:30.018Z,16.90
2022-08-31T17:57:00.533Z,16.90
2022-08-31T17:59:32.080Z,16.80
2022-08-31T18:02:04.618Z,16.80
2022-08-31T18:04:33.907Z,16.80
2022-08-31T18:07:01.762Z,16.70
2022-08-31T18:09:32.983Z,16.70
2022-08-31T18:12:01.858Z,16.70
2022-08-31T18:14:33.975Z,16.80
2022-08-31T18:17:03.724Z,16.80
2022-08-31T18:19:32.999Z,16.80
2022-08-31T18:22:00.988Z,16.80
2022-08-31T18:24:31.354Z,16.80
2022-08-31T18:26:58.773Z,16.80
2022-08-31T18:29:26.636Z,16.80
2022-08-31T18:31:53.987Z,16.80
2022-08-31T18:34:24.044Z,16.70
2022-08-31T18:36:55.086Z,16.70
2022-08-31T18:39:47.623Z,16.70
2022-08-31T18:42:32.247Z,16.70
2022-08-31T18:45:18.071Z,16.60
2022-08-31T18:50:44.403Z,16.60
2022-08-31T18:53:15.020Z,16.50
2022-08-31T18:55:44.131Z,16.40
2022-08-31T18:58:11.340Z,16.40
2022-08-31T19:00:40.155Z,16.50
2022-08-31T19:03:07.749Z,16.40
2022-08-31T19:05:39.481Z,16.40
2022-08-31T19:08:06.682Z,16.50
2022-08-31T19:10:34.715Z,16.50
2022-08-31T19:13:07.314Z,16.40
2022-08-31T19:15:39.930Z,16.50
2022-08-31T19:18:08.187Z,16.40
2022-08-31T19:20:35.532Z,16.50
2022-08-31T19:23:03.370Z,16.40
2022-08-31T19:25:31.857Z,16.50
2022-08-31T19:28:01.372Z,16.50
2022-08-31T19:30:28.747Z,16.50
2022-08-31T19:32:56.597Z,16.50
2022-08-31T19:35:26.940Z,16.50
2022-08-31T19:37:56.039Z,16.50
2022-08-31T19:40:23.006Z,16.70
2022-08-31T19:45:45.718Z,16.50
2022-08-31T19:48:13.346Z,16.50
2022-08-31T19:50:42.431Z,16.50
2022-08-31T19:53:13.486Z,16.50
2022-08-31T19:55:50.422Z,16.50
2022-08-31T19:58:19.992Z,16.60
2022-08-31T20:00:47.304Z,16.60
2022-08-31T20:03:16.178Z,16.60
2022-08-31T20:05:43.381Z,16.50
2022-08-31T20:08:12.171Z,16.60
2022-08-31T20:10:45.339Z,16.60
2022-08-31T20:13:12.951Z,16.60
2022-08-31T20:15:44.898Z,16.50
2022-08-31T20:18:12.539Z,16.60
2022-08-31T20:20:45.833Z,16.60
2022-08-31T20:23:16.344Z,16.60
2022-08-31T20:25:45.059Z,16.60
2022-08-31T20:28:13.224Z,16.60
2022-08-31T20:30:43.170Z,16.60
2022-08-31T20:33:11.511Z,16.60
2022-08-31T20:35:47.782Z,16.60
2022-08-31T20:38:17.008Z,16.60
2022-08-31T20:40:47.255Z,16.50
2022-08-31T20:43:14.925Z,16.50
2022-08-31T20:45:42.517Z,16.50
2022-08-31T20:48:29.247Z,16.50
2022-08-31T20:50:56.481Z,16.50
2022-08-31T20:53:25.021Z,16.50
2022-08-31T20:56:11.447Z,16.40
2022-08-31T20:58:45.174Z,16.40
2022-08-31T21:01:13.669Z,16.40
2022-08-31T21:03:40.851Z,16.40
2022-08-31T21:06:11.570Z,16.40
2022-08-31T21:08:42.308Z,16.40
2022-08-31T21:11:18.514Z,16.40
2022-08-31T21:13:46.800Z,16.40
2022-08-31T21:16:15.488Z,16.30
2022-08-31T21:18:42.495Z,16.40
2022-08-31T21:21:17.519Z,16.30
2022-08-31T21:23:46.815Z,16.30
2022-08-31T21:26:21.305Z,16.30
2022-08-31T21:28:49.747Z,16.30
2022-08-31T21:31:28.897Z,16.30
2022-08-31T21:34:02.233Z,16.30
2022-08-31T21:36:33.031Z,16.30
2022-08-31T21:39:00.542Z,16.30
2022-08-31T21:41:29.176Z,16.30
2022-08-31T21:43:57.494Z,16.40
2022-08-31T21:46:27.810Z,16.30
2022-08-31T21:48:58.181Z,16.20
2022-08-31T21:51:41.139Z,16.30
2022-08-31T21:54:09.238Z,16.20
2022-08-31T21:56:46.607Z,16.20
2022-08-31T21:59:16.117Z,16.20
2022-08-31T22:01:45.017Z,16.30
2022-08-31T22:04:15.781Z,16.30
2022-08-31T22:06:43.551Z,16.20
2022-08-31T22:09:15.700Z,16.20
2022-08-31T22:11:49.323Z,16.20
2022-08-31T22:14:19.952Z,16.20
2022-08-31T22:16:48.066Z,16.20
2022-08-31T22:19:20.777Z,16.20
2022-08-31T22:21:52.727Z,16.20
2022-08-31T22:24:27.156Z,16.10
2022-08-31T22:26:58.836Z,16.10
2022-08-31T22:29:30.851Z,16.10
2022-08-31T22:32:01.012Z,16.10
2022-08-31T22:34:28.021Z,16.10
2022-08-31T22:36:56.568Z,16.10
2022-08-31T22:39:28.903Z,16.00
2022-08-31T22:41:58.034Z,16.10
2022-08-31T22:44:32.247Z,16.10
2022-08-31T22:46:59.230Z,16.10
2022-08-31T22:49:26.994Z,16.00
2022-08-31T22:51:54.430Z,16.10
2022-08-31T22:54:22.819Z,16.10
2022-08-31T22:56:50.698Z,16.10
2022-08-31T22:59:26.065Z,16.00
2022-08-31T23:01:56.876Z,16.00
2022-08-31T23:04:26.228Z,16.00
2022-08-31T23:06:55.300Z,16.00
2022-08-31T23:09:27.526Z,15.90
2022-08-31T23:11:55.703Z,15.90
2022-08-31T23:14:23.179Z,15.90
2022-08-31T23:17:02.725Z,15.90
2022-08-31T23:19:36.610Z,15.90
2022-08-31T23:22:09.030Z,16.00
2022-08-31T23:24:44.673Z,15.90
2022-08-31T23:27:13.346Z,15.90
2022-08-31T23:29:51.256Z,15.90
2022-08-31T23:32:21.566Z,15.90
2022-08-31T23:34:52.461Z,15.90
2022-08-31T23:37:24.022Z,15.90
2022-08-31T23:39:54.304Z,15.90
2022-08-31T23:42:23.290Z,15.90
2022-08-31T23:44:50.341Z,15.90
2022-08-31T23:47:25.788Z,15.90
2022-08-31T23:49:53.751Z,15.90
2022-08-31T23:52:25.421Z,15.80
2022-08-31T23:54:57.642Z,15.80
2022-08-31T23:57:32.103Z,15.80
